Time;durP1;ratioP1;P1;durP2;ratioP2;P2;SDS_P1;SDS_P2;PMS_P1;PMS_P2;Temp;Humidity;BMP_temperature;BMP_pressure;BME280_temperature;BME280_humidity;BME280_pressure;Samples;Min_cycle;Max_cycle;Signal;HPM_P1;HPM_P2
2023/05/10 00:01:37;;;;;;;8.07;7.30;;;19.40;90.30;;;;;;3970506;29;20082;-55
2023/05/10 00:04:18;;;;;;;7.75;7.05;;;19.40;90.40;;;;;;3972056;29;20062;-53
2023/05/10 00:06:59;;;;;;;6.75;6.18;;;19.40;90.30;;;;;;3957704;29;20050;-53
2023/05/10 00:09:40;;;;;;;6.15;5.65;;;19.30;90.30;;;;;;3971894;29;20057;-54
2023/05/10 00:12:22;;;;;;;6.05;5.65;;;19.40;90.30;;;;;;3971231;29;20057;-51
2023/05/10 00:15:04;;;;;;;5.38;5.07;;;19.40;90.30;;;;;;3971642;29;20054;-54
2023/05/10 00:17:45;;;;;;;5.80;5.40;;;19.40;90.20;;;;;;3970832;29;20411;-51
2023/05/10 00:20:26;;;;;;;5.68;5.38;;;19.30;90.20;;;;;;3967758;29;20058;-49
2023/05/10 00:23:07;;;;;;;7.10;6.55;;;19.40;90.10;;;;;;3971781;29;20203;-52
2023/05/10 00:25:48;;;;;;;5.80;5.43;;;19.30;90.20;;;;;;3971275;29;20062;-50
2023/05/10 00:28:30;;;;;;;6.38;5.97;;;19.30;90.10;;;;;;3970985;29;20193;-50
2023/05/10 00:31:11;;;;;;;5.15;4.85;;;19.30;90.10;;;;;;3970988;29;20132;-52
2023/05/10 00:33:52;;;;;;;4.93;4.63;;;19.30;90.50;;;;;;3959965;29;20415;-54
2023/05/10 00:36:33;;;;;;;4.73;4.43;;;19.30;90.00;;;;;;3960199;29;20112;-49
2023/05/10 00:39:14;;;;;;;4.80;4.50;;;19.30;89.80;;;;;;3971591;29;20445;-54
2023/05/10 00:41:55;;;;;;;4.70;4.40;;;19.30;89.70;;;;;;3960223;29;20057;-51
2023/05/10 00:44:38;;;;;;;5.30;4.90;;;19.30;89.80;;;;;;3960288;29;20142;-53
2023/05/10 00:47:19;;;;;;;4.63;4.32;;;19.30;89.70;;;;;;3971302;29;20111;-52
2023/05/10 00:50:01;;;;;;;4.70;4.40;;;19.30;89.60;;;;;;3959891;29;20146;-53
2023/05/10 00:52:43;;;;;;;4.53;4.25;;;19.30;89.50;;;;;;3959858;29;20105;-52
2023/05/10 00:55:25;;;;;;;4.95;4.50;;;19.20;89.30;;;;;;3971368;29;20073;-52
2023/05/10 00:58:06;;;;;;;4.53;4.10;;;19.30;89.30;;;;;;3970933;29;20074;-51
2023/05/10 01:00:49;;;;;;;6.32;5.03;;;19.20;89.30;;;;;;3959735;29;20066;-50
2023/05/10 01:03:30;;;;;;;4.60;4.32;;;19.20;89.30;;;;;;3971119;29;20053;-49
2023/05/10 01:06:11;;;;;;;4.85;4.55;;;19.20;89.40;;;;;;3971148;29;20079;-53
2023/05/10 01:08:52;;;;;;;4.63;4.43;;;19.20;89.30;;;;;;3945031;30;20058;-55
2023/05/10 01:11:34;;;;;;;5.15;4.85;;;19.20;89.20;;;;;;3956585;29;20058;-53
2023/05/10 01:14:18;;;;;;;5.50;5.10;;;19.20;89.20;;;;;;3945232;29;20067;-51
2023/05/10 01:17:01;;;;;;;5.28;4.97;;;19.20;89.20;;;;;;3963172;29;20526;-51
2023/05/10 01:19:42;;;;;;;5.10;4.80;;;19.20;89.10;;;;;;3970467;29;20065;-52
2023/05/10 01:22:43;;;;;;;5.55;5.15;;;19.20;89.20;;;;;;3970255;29;20522;-51
2023/05/10 01:25:42;;;;;;;6.00;5.50;;;19.20;88.70;;;;;;3947640;30;20524;-53
2023/05/10 01:28:58;;;;;;;4.70;4.40;;;19.20;89.50;;;;;;3957721;29;20062;-51
2023/05/10 01:32:16;;;;;;;4.97;4.68;;;19.20;88.50;;;;;;3971335;29;20407;-55
2023/05/10 01:35:03;;;;;;;5.25;4.90;;;19.20;88.80;;;;;;3973977;29;20535;-55
2023/05/10 01:37:50;;;;;;;5.32;5.03;;;19.10;89.30;;;;;;3973471;29;20118;-55
2023/05/10 01:40:37;;;;;;;5.95;5.47;;;19.10;89.20;;;;;;3973462;29;20066;-55
2023/05/10 01:43:23;;;;;;;5.20;4.80;;;19.10;89.20;;;;;;3962610;29;20192;-56
2023/05/10 01:46:11;;;;;;;5.35;4.95;;;19.10;89.10;;;;;;3959033;29;20147;-51
2023/05/10 01:48:56;;;;;;;5.38;5.03;;;19.10;89.20;;;;;;3954975;29;20058;-54
2023/05/10 01:51:43;;;;;;;5.15;4.85;;;19.10;89.10;;;;;;3973995;29;20099;-53
2023/05/10 01:54:25;;;;;;;4.90;4.60;;;19.10;89.00;;;;;;3962800;29;20387;-55
2023/05/10 01:57:09;;;;;;;5.07;4.68;;;19.10;89.00;;;;;;3973461;29;20151;-54
2023/05/10 01:59:52;;;;;;;4.80;4.50;;;19.10;89.00;;;;;;3962386;29;20062;-54
2023/05/10 02:02:37;;;;;;;5.05;4.75;;;19.10;89.10;;;;;;3952130;29;20088;-54
2023/05/10 02:05:22;;;;;;;4.00;3.80;;;19.10;89.10;;;;;;3973433;29;20080;-51
2023/05/10 02:08:06;;;;;;;4.95;4.55;;;19.10;89.20;;;;;;3961639;29;20058;-53
2023/05/10 02:10:53;;;;;;;5.00;4.70;;;19.00;89.10;;;;;;3962147;29;20407;-55
2023/05/10 02:13:36;;;;;;;4.57;4.22;;;19.10;89.10;;;;;;3973208;29;20065;-52
2023/05/10 02:16:19;;;;;;;4.85;4.45;;;19.10;89.00;;;;;;3965781;29;20191;-54
2023/05/10 02:19:02;;;;;;;4.50;4.10;;;19.10;89.20;;;;;;3961680;29;20062;-54
2023/05/10 02:21:46;;;;;;;5.15;4.75;;;19.00;89.00;;;;;;3972190;29;20061;-55
2023/05/10 02:24:28;;;;;;;5.53;5.15;;;19.00;88.90;;;;;;3962259;29;20505;-53
2023/05/10 02:27:10;;;;;;;5.45;5.15;;;19.10;88.90;;;;;;3972949;29;20081;-54
2023/05/10 02:29:53;;;;;;;5.72;5.28;;;19.00;88.70;;;;;;3973474;29;20062;-52
2023/05/10 02:32:36;;;;;;;5.63;5.13;;;19.10;89.00;;;;;;3972635;29;20046;-57
2023/05/10 02:35:17;;;;;;;5.22;4.80;;;19.00;88.90;;;;;;3961629;29;20116;-52
2023/05/10 02:38:00;;;;;;;;;;;19.10;88.80;;;;;;3973687;29;20053;-52
2023/05/10 02:40:45;;;;;;;5.00;4.70;;;19.00;88.80;;;;;;3962214;29;20293;-53
2023/05/10 02:43:27;;;;;;;5.43;5.07;;;19.00;89.50;;;;;;3973150;29;20180;-50
2023/05/10 02:46:09;;;;;;;6.35;5.95;;;19.00;89.10;;;;;;3961391;29;20058;-54
2023/05/10 02:48:50;;;;;;;5.60;5.20;;;19.00;89.00;;;;;;3971257;29;20061;-55
2023/05/10 02:51:33;;;;;;;6.67;6.17;;;19.00;89.10;;;;;;3961620;29;20061;-51
2023/05/10 02:54:21;;;;;;;6.72;6.18;;;19.00;89.00;;;;;;3972879;29;20061;-51
2023/05/10 02:57:06;;;;;;;7.13;6.57;;;19.00;89.00;;;;;;3972544;29;20486;-50
2023/05/10 02:59:47;;;;;;;6.38;5.88;;;19.00;89.90;;;;;;3972017;29;20518;-51
2023/05/10 03:02:30;;;;;;;6.78;6.28;;;19.00;89.00;;;;;;3961552;29;20084;-53
2023/05/10 03:05:10;;;;;;;6.03;5.60;;;19.00;89.10;;;;;;3972428;29;20058;-53
2023/05/10 03:07:52;;;;;;;6.18;5.68;;;19.00;89.10;;;;;;3961488;29;20192;-52
2023/05/10 03:10:45;;;;;;;6.18;5.78;;;18.90;89.10;;;;;;3972690;29;20085;-46
2023/05/10 03:13:35;;;;;;;6.60;6.13;;;19.00;89.10;;;;;;3972512;29;20065;-55
2023/05/10 03:16:19;;;;;;;5.88;5.47;;;19.00;89.30;;;;;;3961302;29;20095;-51
2023/05/10 03:19:08;;;;;;;6.50;6.00;;;19.00;89.20;;;;;;3972279;29;20135;-53
2023/05/10 03:21:52;;;;;;;6.43;5.93;;;19.00;88.90;;;;;;3960753;29;20078;-52
2023/05/10 03:24:35;;;;;;;6.30;5.72;;;18.90;88.80;;;;;;3960957;29;20061;-56
2023/05/10 03:27:18;;;;;;;5.97;5.47;;;19.00;88.80;;;;;;3961216;29;20066;-54
2023/05/10 03:30:00;;;;;;;5.93;5.50;;;18.90;88.80;;;;;;3972128;29;20192;-55
2023/05/10 03:32:42;;;;;;;6.78;6.28;;;18.90;88.80;;;;;;3960958;29;20225;-55
2023/05/10 03:35:23;;;;;;;6.50;5.97;;;18.90;88.60;;;;;;3972343;29;20498;-52
2023/05/10 03:38:03;;;;;;;6.32;5.80;;;18.90;88.50;;;;;;3960895;29;20584;-51
2023/05/10 03:40:44;;;;;;;5.90;5.50;;;18.90;88.50;;;;;;3972000;29;20057;-51
2023/05/10 03:43:27;;;;;;;6.75;6.10;;;18.90;88.70;;;;;;3971527;29;20428;-54
2023/05/10 03:46:08;;;;;;;7.30;6.70;;;18.90;88.70;;;;;;3961042;29;20097;-55
2023/05/10 03:48:49;;;;;;;7.22;6.60;;;18.90;89.00;;;;;;3960812;29;20119;-50
2023/05/10 03:51:30;;;;;;;7.63;6.97;;;18.90;89.10;;;;;;3972081;29;20065;-55
2023/05/10 03:54:12;;;;;;;7.35;6.75;;;18.90;89.10;;;;;;3960536;29;20073;-56
2023/05/10 03:56:53;;;;;;;7.63;6.95;;;18.90;89.10;;;;;;3960513;29;20062;-56
2023/05/10 03:59:36;;;;;;;8.38;7.57;;;18.90;89.20;;;;;;3960857;29;20058;-57
2023/05/10 04:02:17;;;;;;;7.82;7.10;;;18.90;89.00;;;;;;3972092;29;20065;-56
2023/05/10 04:04:58;;;;;;;8.55;7.80;;;18.90;89.00;;;;;;3956176;29;20104;-56
2023/05/10 04:07:39;;;;;;;8.90;8.00;;;18.90;89.10;;;;;;3956853;29;20062;-54
2023/05/10 04:10:21;;;;;;;9.05;8.20;;;18.90;89.10;;;;;;3967193;29;20790;-56
2023/05/10 04:13:02;;;;;;;10.18;8.02;;;18.90;89.00;;;;;;3971170;29;20231;-55
2023/05/10 04:15:44;;;;;;;8.40;7.70;;;18.90;89.10;;;;;;3960323;29;20050;-56
2023/05/10 04:18:25;;;;;;;9.55;8.50;;;18.90;89.00;;;;;;3971683;29;20166;-54
2023/05/10 04:21:11;;;;;;;9.77;8.77;;;18.80;88.90;;;;;;3960491;29;20058;-55
2023/05/10 04:23:52;;;;;;;12.13;9.60;;;18.80;88.90;;;;;;3971403;29;20065;-56
2023/05/10 04:26:33;;;;;;;9.85;8.68;;;18.80;88.90;;;;;;3971065;29;20053;-52
2023/05/10 04:29:14;;;;;;;13.38;10.65;;;18.80;88.90;;;;;;3970928;29;20085;-54
2023/05/10 04:31:57;;;;;;;12.75;10.45;;;18.80;89.00;;;;;;3971111;29;20423;-53
2023/05/10 04:34:38;;;;;;;11.77;10.18;;;18.80;89.00;;;;;;3945443;30;20160;-55
2023/05/10 04:37:19;;;;;;;11.43;9.68;;;18.80;88.90;;;;;;3956692;29;20108;-52
2023/05/10 04:40:00;;;;;;;12.02;10.20;;;18.80;88.80;;;;;;3956559;29;20502;-56
2023/05/10 04:42:42;;;;;;;;;;;18.80;88.80;;;;;;3962593;29;20200;-53
2023/05/10 04:45:23;;;;;;;12.85;9.52;;;18.80;89.00;;;;;;3971409;29;19940;-52
2023/05/10 04:48:06;;;;;;;11.13;9.95;;;18.80;89.60;;;;;;3956614;29;20135;-55
2023/05/10 04:50:47;;;;;;;12.85;10.27;;;18.80;89.50;;;;;;3956504;29;20111;-57
2023/05/10 04:53:28;;;;;;;11.00;9.13;;;18.80;89.50;;;;;;3956650;29;20097;-55
2023/05/10 04:56:08;;;;;;;9.75;8.60;;;18.80;89.50;;;;;;3956732;29;20070;-54
2023/05/10 04:58:49;;;;;;;10.93;8.32;;;18.80;89.60;;;;;;3956298;29;20061;-56
2023/05/10 05:01:30;;;;;;;8.57;7.70;;;18.70;89.60;;;;;;3956036;29;20073;-51
2023/05/10 05:04:14;;;;;;;8.00;7.20;;;18.70;89.60;;;;;;3955571;29;20066;-56
2023/05/10 05:06:55;;;;;;;7.22;6.47;;;18.80;89.70;;;;;;3957115;29;20200;-54
2023/05/10 05:09:36;;;;;;;7.10;6.43;;;18.70;89.70;;;;;;3970877;29;20061;-54
2023/05/10 05:12:17;;;;;;;9.70;6.72;;;18.80;89.70;;;;;;3971069;29;20057;-56
2023/05/10 05:14:58;;;;;;;6.00;5.47;;;18.70;89.70;;;;;;3959906;29;20168;-54
2023/05/10 05:17:39;;;;;;;4.38;3.97;;;18.70;89.60;;;;;;3956224;29;20149;-55
2023/05/10 05:20:24;;;;;;;3.25;3.05;;;18.70;89.40;;;;;;3956356;29;20067;-55
2023/05/10 05:23:05;;;;;;;3.03;2.80;;;18.80;90.10;;;;;;3956284;29;20102;-52
2023/05/10 05:25:46;;;;;;;2.85;2.65;;;18.70;89.30;;;;;;3956368;29;20066;-53
2023/05/10 05:28:28;;;;;;;3.25;3.05;;;18.70;90.00;;;;;;3970627;29;20061;-53
2023/05/10 05:31:09;;;;;;;2.60;2.50;;;18.70;89.50;;;;;;3970966;29;20441;-52
2023/05/10 05:33:51;;;;;;;3.45;2.58;;;18.70;89.50;;;;;;3970941;29;20065;-50
2023/05/10 05:36:33;;;;;;;2.30;2.20;;;18.70;89.50;;;;;;3971314;29;20395;-48
2023/05/10 05:39:16;;;;;;;2.08;1.98;;;18.70;89.40;;;;;;3970775;29;20122;-46
2023/05/10 05:41:58;;;;;;;1.58;1.58;;;18.70;89.40;;;;;;3970447;29;20081;-47
2023/05/10 05:44:39;;;;;;;1.63;1.50;;;18.70;89.30;;;;;;3970449;29;20057;-47
2023/05/10 05:47:20;;;;;;;1.73;1.63;;;18.70;89.50;;;;;;3970588;29;20131;-44
2023/05/10 05:50:01;;;;;;;2.28;1.60;;;18.70;89.70;;;;;;3959545;29;20103;-50
2023/05/10 05:52:43;;;;;;;2.17;1.20;;;18.70;89.80;;;;;;3971064;29;20054;-46
2023/05/10 05:55:25;;;;;;;1.85;1.38;;;18.80;89.90;;;;;;3966839;29;20388;-44
2023/05/10 05:58:06;;;;;;;1.35;1.33;;;18.80;89.40;;;;;;3982648;29;20112;-47
2023/05/10 06:00:47;;;;;;;1.70;1.60;;;18.80;89.10;;;;;;3983952;29;20434;-45
2023/05/10 06:03:28;;;;;;;1.63;1.35;;;18.80;89.20;;;;;;3970761;29;20061;-45
2023/05/10 06:06:09;;;;;;;1.35;1.35;;;18.80;89.20;;;;;;3959199;29;20552;-45
2023/05/10 06:08:51;;;;;;;2.17;1.50;;;18.80;89.30;;;;;;3970673;29;20151;-50
2023/05/10 06:11:32;;;;;;;1.60;1.40;;;18.80;89.40;;;;;;3972789;29;20054;-44
2023/05/10 06:14:13;;;;;;;5.10;1.42;;;18.80;89.50;;;;;;3973082;29;20135;-45
2023/05/10 06:16:54;;;;;;;1.60;1.50;;;18.70;90.10;;;;;;3973019;29;20058;-46
2023/05/10 06:19:36;;;;;;;1.50;1.40;;;18.70;89.50;;;;;;3969080;29;20436;-51
2023/05/10 06:22:18;;;;;;;1.30;1.30;;;18.70;89.60;;;;;;3972339;29;20061;-48
2023/05/10 06:24:59;;;;;;;1.48;1.48;;;18.70;90.00;;;;;;3973226;29;20058;-47
2023/05/10 06:27:41;;;;;;;2.15;1.63;;;18.70;90.00;;;;;;3970739;29;20088;-45
2023/05/10 06:30:22;;;;;;;1.55;1.45;;;18.70;90.00;;;;;;3968544;29;20509;-47
2023/05/10 06:33:04;;;;;;;1.73;1.63;;;18.70;90.00;;;;;;3969631;29;20074;-49
2023/05/10 06:35:45;;;;;;;1.52;1.30;;;18.70;90.10;;;;;;3970408;29;20066;-48
2023/05/10 06:38:27;;;;;;;1.52;1.50;;;18.70;90.00;;;;;;3969699;29;20601;-45
2023/05/10 06:41:09;;;;;;;1.58;1.48;;;18.70;89.90;;;;;;3959245;29;20146;-47
2023/05/10 06:43:50;;;;;;;3.67;1.50;;;18.70;89.70;;;;;;3968664;29;20057;-44
2023/05/10 06:46:31;;;;;;;1.35;1.35;;;18.70;89.70;;;;;;3969815;29;20099;-46
2023/05/10 06:49:12;;;;;;;1.40;1.30;;;18.70;89.60;;;;;;3970203;29;20135;-47
2023/05/10 06:51:53;;;;;;;1.27;1.27;;;18.70;89.50;;;;;;3971145;29;20548;-48
2023/05/10 06:54:34;;;;;;;0.80;0.80;;;18.60;89.50;;;;;;3969907;29;20062;-48
2023/05/10 06:57:17;;;;;;;0.43;0.43;;;18.70;89.70;;;;;;3970098;29;20069;-54
2023/05/10 07:00:11;;;;;;;0.45;0.45;;;18.70;89.70;;;;;;3969357;29;20521;-57
2023/05/10 07:02:52;;;;;;;0.30;0.30;;;18.70;90.30;;;;;;3969430;29;20126;-56
2023/05/10 07:05:33;;;;;;;0.60;0.60;;;18.70;89.80;;;;;;3969819;29;20399;-56
2023/05/10 07:08:14;;;;;;;0.80;0.80;;;18.70;89.70;;;;;;3970216;29;20061;-56
2023/05/10 07:11:01;;;;;;;1.05;1.05;;;18.70;89.70;;;;;;3968948;29;20058;-47
2023/05/10 07:13:44;;;;;;;1.25;1.13;;;18.70;89.50;;;;;;3970122;29;20069;-48
2023/05/10 07:16:25;;;;;;;1.35;1.02;;;18.60;89.40;;;;;;3970159;29;20062;-49
2023/05/10 07:19:06;;;;;;;1.48;1.38;;;18.60;89.30;;;;;;3968667;29;20074;-54
2023/05/10 07:21:47;;;;;;;2.28;1.88;;;18.60;89.20;;;;;;3968573;29;20131;-52
2023/05/10 07:24:28;;;;;;;2.50;2.30;;;18.60;89.10;;;;;;3969331;29;20066;-57
2023/05/10 07:27:09;;;;;;;3.60;2.65;;;18.60;89.40;;;;;;3969510;29;20061;-57
2023/05/10 07:29:52;;;;;;;2.63;2.53;;;18.60;89.50;;;;;;3969158;29;20176;-56
2023/05/10 07:32:33;;;;;;;2.80;2.70;;;18.60;89.30;;;;;;3969755;29;20079;-56
2023/05/10 07:35:13;;;;;;;2.80;2.70;;;18.60;89.20;;;;;;3969387;29;20111;-56
2023/05/10 07:37:55;;;;;;;2.78;2.67;;;18.60;89.30;;;;;;3969198;29;20053;-47
2023/05/10 07:40:36;;;;;;;2.63;2.53;;;18.60;89.40;;;;;;3970082;29;20066;-48
2023/05/10 07:43:17;;;;;;;3.13;2.92;;;18.50;89.40;;;;;;3969802;29;20078;-47
2023/05/10 07:45:59;;;;;;;3.53;3.33;;;18.60;89.30;;;;;;3969209;29;20063;-49
2023/05/10 07:48:41;;;;;;;3.35;3.15;;;18.60;89.20;;;;;;3969427;29;20195;-46
2023/05/10 07:51:22;;;;;;;3.80;3.60;;;18.60;89.20;;;;;;3969178;29;20062;-44
2023/05/10 07:54:03;;;;;;;4.13;3.72;;;18.50;89.80;;;;;;3968839;29;20061;-44
2023/05/10 07:56:46;;;;;;;3.90;3.65;;;18.50;89.20;;;;;;3957010;29;20062;-45
2023/05/10 07:59:27;;;;;;;3.40;3.20;;;18.50;89.20;;;;;;3968979;29;20062;-47
2023/05/10 08:02:09;;;;;;;3.40;3.20;;;18.50;89.20;;;;;;3969180;29;20193;-44
2023/05/10 08:04:50;;;;;;;3.00;2.80;;;18.60;89.20;;;;;;3968110;29;20076;-44
2023/05/10 08:07:31;;;;;;;3.03;2.92;;;18.50;89.10;;;;;;3969406;29;20062;-44
2023/05/10 08:10:12;;;;;;;2.83;2.63;;;18.50;89.00;;;;;;3969434;29;20194;-48
2023/05/10 08:12:53;;;;;;;2.72;2.53;;;18.50;89.10;;;;;;3968811;29;20062;-47
2023/05/10 08:15:34;;;;;;;2.60;2.50;;;18.50;89.20;;;;;;3968189;29;20070;-49
2023/05/10 08:18:16;;;;;;;2.50;2.40;;;18.50;89.20;;;;;;3968679;29;20056;-45
2023/05/10 08:20:58;;;;;;;1.83;1.73;;;18.50;89.30;;;;;;3957702;29;20531;-48
2023/05/10 08:23:38;;;;;;;2.30;2.20;;;18.50;89.30;;;;;;3968965;29;20062;-44
2023/05/10 08:26:20;;;;;;;2.42;2.13;;;18.50;89.30;;;;;;3968829;29;20075;-47
2023/05/10 08:29:01;;;;;;;1.70;1.70;;;18.50;89.20;;;;;;3969060;29;20061;-46
2023/05/10 08:31:42;;;;;;;1.52;1.52;;;18.50;89.00;;;;;;3968693;29;20053;-46
2023/05/10 08:34:25;;;;;;;1.55;1.55;;;18.50;89.10;;;;;;3968554;29;20061;-48
2023/05/10 08:37:06;;;;;;;2.30;1.55;;;18.50;90.00;;;;;;3955991;29;20058;-49
2023/05/10 08:39:47;;;;;;;1.70;1.70;;;18.50;88.70;;;;;;3968532;29;20578;-46
2023/05/10 08:42:31;;;;;;;2.40;2.30;;;18.50;88.60;;;;;;3968849;29;20307;-56
2023/05/10 08:45:13;;;;;;;2.10;2.00;;;18.50;88.80;;;;;;3968522;29;20160;-54
2023/05/10 08:47:53;;;;;;;2.25;2.15;;;18.50;88.90;;;;;;3968746;29;20474;-54
2023/05/10 08:50:37;;;;;;;2.15;2.05;;;18.50;89.00;;;;;;3967108;29;20173;-56
2023/05/10 08:53:19;;;;;;;2.20;2.10;;;18.50;89.00;;;;;;3968656;29;20058;-56
2023/05/10 08:56:02;;;;;;;2.58;2.38;;;18.50;89.10;;;;;;3968700;29;20192;-56
2023/05/10 08:58:43;;;;;;;2.28;2.17;;;18.40;88.80;;;;;;3968970;29;20089;-57
2023/05/10 09:01:25;;;;;;;1.75;1.75;;;18.50;88.60;;;;;;3968769;29;20146;-56
2023/05/10 09:04:06;;;;;;;1.90;1.80;;;18.50;88.50;;;;;;3968165;29;20138;-56
2023/05/10 09:06:49;;;;;;;1.65;1.60;;;18.50;89.00;;;;;;3957407;29;20538;-55
2023/05/10 09:09:30;;;;;;;1.60;1.60;;;18.50;89.20;;;;;;3967315;29;20061;-56
2023/05/10 09:12:11;;;;;;;1.90;1.80;;;18.50;89.20;;;;;;3968071;29;20089;-44
2023/05/10 09:14:55;;;;;;;2.17;2.08;;;18.50;89.20;;;;;;3967743;29;20517;-56
2023/05/10 09:17:36;;;;;;;2.20;1.63;;;18.40;89.00;;;;;;3967390;29;20929;-54
2023/05/10 09:20:18;;;;;;;0.90;0.90;;;18.50;89.00;;;;;;3968421;29;20083;-56
2023/05/10 09:23:00;;;;;;;1.33;1.20;;;18.40;88.90;;;;;;3967964;29;20065;-56
2023/05/10 09:25:43;;;;;;;1.30;1.30;;;18.40;88.90;;;;;;3967770;29;20498;-56
2023/05/10 09:28:24;;;;;;;1.73;1.55;;;18.40;88.60;;;;;;3967999;29;20319;-56
2023/05/10 09:31:05;;;;;;;1.60;1.42;;;18.40;88.50;;;;;;3968167;29;20183;-56
2023/05/10 09:33:46;;;;;;;1.38;1.27;;;18.40;88.70;;;;;;3968530;29;20176;-57
2023/05/10 09:36:27;;;;;;;;;;;18.50;89.60;;;;;;3969069;29;20114;-47
2023/05/10 09:39:10;;;;;;;1.00;1.00;;;18.50;88.90;;;;;;3967789;29;19939;-48
2023/05/10 09:41:51;;;;;;;1.08;0.95;;;18.40;89.30;;;;;;3968354;29;20073;-45
2023/05/10 09:44:33;;;;;;;1.17;1.17;;;18.50;89.30;;;;;;3967836;29;20200;-47
2023/05/10 09:47:19;;;;;;;2.20;0.95;;;18.50;89.20;;;;;;3971125;29;20073;-47
2023/05/10 09:50:03;;;;;;;1.13;1.00;;;18.50;88.90;;;;;;3971113;29;20616;-43
2023/05/10 09:52:50;;;;;;;1.60;1.50;;;18.50;88.80;;;;;;3971505;29;20130;-45
2023/05/10 09:55:44;;;;;;;1.60;1.60;;;18.50;88.70;;;;;;3960132;29;20525;-44
2023/05/10 09:58:25;;;;;;;1.52;1.42;;;18.40;88.70;;;;;;3970739;29;20403;-45
2023/05/10 10:01:11;;;;;;;1.75;1.73;;;18.40;89.80;;;;;;3970265;29;20070;-45
2023/05/10 10:03:52;;;;;;;2.08;1.98;;;18.50;89.10;;;;;;3971032;29;20513;-45
2023/05/10 10:06:37;;;;;;;2.45;2.10;;;18.50;89.10;;;;;;3970206;29;20078;-46
2023/05/10 10:09:19;;;;;;;2.35;2.22;;;18.50;89.00;;;;;;3970820;29;20062;-44
2023/05/10 10:12:02;;;;;;;3.50;2.38;;;18.50;89.00;;;;;;3970369;29;20135;-74
2023/05/10 10:14:44;;;;;;;2.47;2.38;;;18.50;89.00;;;;;;3970587;29;20173;-44
2023/05/10 10:17:25;;;;;;;;;;;18.50;89.00;;;;;;3969999;29;20134;-48
2023/05/10 10:20:09;;;;;;;;;;;18.50;89.00;;;;;;3971397;29;20078;-44
2023/05/10 10:22:52;;;;;;;2.60;2.50;;;18.50;89.40;;;;;;3970689;29;20322;-53
2023/05/10 10:25:33;;;;;;;2.97;2.78;;;18.50;90.10;;;;;;3969570;29;20062;-53
2023/05/10 10:28:27;;;;;;;2.50;2.30;;;18.50;89.20;;;;;;3970539;29;20079;-53
2023/05/10 10:31:21;;;;;;;2.88;2.78;;;18.50;89.20;;;;;;3969575;29;20207;-55
2023/05/10 10:34:07;;;;;;;2.35;2.25;;;18.50;89.20;;;;;;3970318;29;20050;-55
2023/05/10 10:36:49;;;;;;;2.58;2.40;;;18.40;89.00;;;;;;3958577;29;20116;-55
2023/05/10 10:39:32;;;;;;;2.83;2.63;;;18.40;89.10;;;;;;3970727;29;20057;-54
2023/05/10 10:42:13;;;;;;;2.30;2.20;;;18.40;88.90;;;;;;3971037;29;20083;-56
2023/05/10 10:45:13;;;;;;;2.47;2.28;;;18.50;88.90;;;;;;3970577;29;20371;-55
2023/05/10 10:48:21;;;;;;;3.00;2.58;;;18.50;88.90;;;;;;3969269;29;20215;-56
2023/05/10 10:51:02;;;;;;;2.30;2.10;;;18.50;89.20;;;;;;3969316;29;20065;-55
2023/05/10 10:53:43;;;;;;;2.30;2.10;;;18.40;89.40;;;;;;3958279;29;20611;-45
2023/05/10 10:56:24;;;;;;;2.63;2.33;;;18.50;89.50;;;;;;3969773;29;20077;-46
2023/05/10 10:59:05;;;;;;;2.22;1.52;;;18.50;90.20;;;;;;3969950;29;20058;-46
2023/05/10 11:01:53;;;;;;;1.38;1.27;;;18.50;89.20;;;;;;3970533;29;20061;-45
2023/05/10 11:04:43;;;;;;;1.15;1.15;;;18.50;88.70;;;;;;3969154;29;20571;-48
2023/05/10 11:07:24;;;;;;;1.13;0.90;;;18.50;88.70;;;;;;3969469;29;20202;-47
2023/05/10 11:10:05;;;;;;;1.05;1.05;;;18.60;89.30;;;;;;3970433;29;20209;-49
2023/05/10 11:12:55;;;;;;;1.30;1.10;;;18.60;89.40;;;;;;3970354;29;20077;-47
2023/05/10 11:15:37;;;;;;;1.88;1.10;;;18.60;89.30;;;;;;3969855;29;20053;-47
2023/05/10 11:18:22;;;;;;;1.67;1.48;;;18.60;89.20;;;;;;3968822;29;20102;-47
2023/05/10 11:21:04;;;;;;;1.65;1.55;;;18.60;89.20;;;;;;3970369;29;20066;-45
2023/05/10 11:23:50;;;;;;;1.40;1.30;;;18.60;89.20;;;;;;3958999;29;20053;-46
2023/05/10 11:26:33;;;;;;;1.38;1.27;;;18.60;89.70;;;;;;3969832;29;20525;-48
2023/05/10 11:29:14;;;;;;;1.55;1.52;;;18.60;88.90;;;;;;3969812;29;20110;-45
2023/05/10 11:31:58;;;;;;;2.30;2.20;;;18.60;89.90;;;;;;3969851;29;20143;-53
2023/05/10 11:34:41;;;;;;;2.10;2.00;;;18.60;89.20;;;;;;3969626;29;20058;-50
2023/05/10 11:37:21;;;;;;;2.00;1.83;;;18.60;89.10;;;;;;3969220;29;20065;-53
2023/05/10 11:40:03;;;;;;;2.38;2.20;;;18.60;89.20;;;;;;3969843;29;20066;-50
2023/05/10 11:42:44;;;;;;;3.80;3.28;;;18.60;89.30;;;;;;3969534;29;20506;-47
2023/05/10 11:45:26;;;;;;;3.30;2.53;;;18.70;90.20;;;;;;3968581;29;20061;-52
2023/05/10 11:48:07;;;;;;;2.80;2.55;;;18.60;90.20;;;;;;3969700;29;20415;-50
2023/05/10 11:50:49;;;;;;;3.47;3.17;;;18.70;90.30;;;;;;3969681;29;20163;-51
2023/05/10 11:53:32;;;;;;;4.70;4.30;;;18.70;90.20;;;;;;3969400;29;20057;-51
2023/05/10 11:56:12;;;;;;;4.68;4.38;;;18.70;90.30;;;;;;3966776;29;20081;-52
2023/05/10 11:58:55;;;;;;;5.82;5.32;;;18.60;90.30;;;;;;3968765;29;20407;-50
2023/05/10 12:01:38;;;;;;;5.32;4.93;;;18.60;90.30;;;;;;3968321;29;20412;-52
2023/05/10 12:04:19;;;;;;;5.18;4.68;;;18.70;90.20;;;;;;3969171;29;20069;-50
2023/05/10 12:07:02;;;;;;;5.10;4.80;;;18.70;90.10;;;;;;3968494;29;20062;-52
2023/05/10 12:09:44;;;;;;;5.97;4.93;;;18.70;89.60;;;;;;3967848;29;20054;-50
2023/05/10 12:12:26;;;;;;;6.90;5.32;;;18.60;89.50;;;;;;3968559;29;20065;-51
2023/05/10 12:15:12;;;;;;;6.20;5.60;;;18.60;89.00;;;;;;3968528;29;20074;-53
2023/05/10 12:17:53;;;;;;;5.72;5.05;;;18.60;89.00;;;;;;3969128;29;20621;-51
2023/05/10 12:20:34;;;;;;;4.88;4.32;;;18.60;89.40;;;;;;3968448;29;20082;-49
2023/05/10 12:23:16;;;;;;;6.35;4.15;;;18.60;89.50;;;;;;3968700;29;20074;-50
2023/05/10 12:26:03;;;;;;;5.10;4.60;;;18.60;88.60;;;;;;3968537;29;20057;-54
2023/05/10 12:28:44;;;;;;;7.15;4.95;;;18.60;88.60;;;;;;3968761;29;20064;-52
2023/05/10 12:31:25;;;;;;;5.72;5.20;;;18.60;88.90;;;;;;3957480;29;20498;-51
2023/05/10 12:34:08;;;;;;;6.10;5.53;;;18.60;89.00;;;;;;3969004;29;20065;-51
2023/05/10 12:36:51;;;;;;;6.97;4.68;;;18.60;88.80;;;;;;3969002;29;20061;-50
2023/05/10 12:39:45;;;;;;;5.85;5.22;;;18.60;88.60;;;;;;3962756;29;20183;-48
2023/05/10 12:42:27;;;;;;;5.60;4.65;;;18.60;88.20;;;;;;3967901;29;20081;-51
2023/05/10 12:45:09;;;;;;;5.85;5.00;;;18.60;88.10;;;;;;3967302;29;20191;-53
2023/05/10 12:47:50;;;;;;;7.38;5.10;;;18.60;87.60;;;;;;3968478;29;20530;-53
2023/05/10 12:50:31;;;;;;;5.68;5.18;;;18.60;87.20;;;;;;3968006;29;20061;-52
2023/05/10 12:53:15;;;;;;;9.43;5.43;;;18.60;87.20;;;;;;3968335;29;20476;-52
2023/05/10 12:55:57;;;;;;;6.75;5.97;;;18.60;86.90;;;;;;3967739;29;20062;-52
2023/05/10 12:58:39;;;;;;;6.32;5.72;;;18.60;86.80;;;;;;3956829;29;20191;-51
2023/05/10 13:01:20;;;;;;;;;;;18.60;86.50;;;;;;3968028;29;20122;-48
2023/05/10 13:04:01;;;;;;;6.88;6.18;;;18.60;87.40;;;;;;3968211;29;20034;-51
2023/05/10 13:06:42;;;;;;;10.25;7.30;;;18.60;86.90;;;;;;3968395;29;20087;-53
2023/05/10 13:09:23;;;;;;;9.68;6.80;;;18.60;86.70;;;;;;3967705;29;20070;-51
2023/05/10 13:12:06;;;;;;;7.97;6.40;;;18.60;86.60;;;;;;3968485;29;20151;-52
2023/05/10 13:14:49;;;;;;;8.30;6.82;;;18.50;86.80;;;;;;3967731;29;20122;-51
2023/05/10 13:17:30;;;;;;;7.40;6.35;;;18.60;87.00;;;;;;3968450;29;20611;-49
2023/05/10 13:20:14;;;;;;;6.80;6.20;;;18.60;86.80;;;;;;3958897;29;20058;-54
2023/05/10 13:22:55;;;;;;;7.47;6.00;;;18.60;86.90;;;;;;3971180;29;20073;-50
2023/05/10 13:25:40;;;;;;;6.05;5.50;;;18.60;86.80;;;;;;3970365;29;20090;-51
2023/05/10 13:28:22;;;;;;;7.38;6.68;;;18.60;86.60;;;;;;3969248;29;20054;-53
2023/05/10 13:31:03;;;;;;;6.90;6.20;;;18.50;86.50;;;;;;3971417;29;20246;-53
2023/05/10 13:33:44;;;;;;;6.95;6.07;;;18.60;86.50;;;;;;3971149;29;20196;-49
2023/05/10 13:36:25;;;;;;;6.25;5.65;;;18.60;86.10;;;;;;3971003;29;20071;-50
2023/05/10 13:39:06;;;;;;;8.48;7.68;;;18.60;85.80;;;;;;3970820;29;20142;-51
2023/05/10 13:41:47;;;;;;;10.57;6.93;;;18.60;85.90;;;;;;3970778;29;20102;-50
2023/05/10 13:44:29;;;;;;;7.18;6.57;;;18.60;86.30;;;;;;3971336;29;20061;-53
2023/05/10 13:47:11;;;;;;;8.50;6.40;;;18.60;86.30;;;;;;3970820;29;20143;-52
2023/05/10 13:49:52;;;;;;;7.22;6.53;;;18.60;86.40;;;;;;3971286;29;20069;-48
2023/05/10 13:52:33;;;;;;;6.63;6.03;;;18.60;86.60;;;;;;3958159;29;20678;-52
2023/05/10 13:55:14;;;;;;;6.45;5.85;;;18.60;86.80;;;;;;3970016;29;20062;-48
2023/05/10 13:57:55;;;;;;;;;;;18.60;87.10;;;;;;3960044;29;20111;-51
2023/05/10 14:00:38;;;;;;;8.23;5.93;;;18.60;87.40;;;;;;3969386;29;19976;-52
2023/05/10 14:03:18;;;;;;;7.53;5.50;;;18.60;87.90;;;;;;3970590;29;20132;-50
2023/05/10 14:05:59;;;;;;;6.05;5.43;;;18.60;87.60;;;;;;3971172;29;20444;-49
2023/05/10 14:08:40;;;;;;;5.60;4.88;;;18.60;87.70;;;;;;3970947;29;20207;-49